Shiloh, Georgia
Current Conditions -  °F | °C
As of 11:51 PM on Tuesday 25 Nov 2014 (Local Time) from KCSG Reporting Station
Light Rain Light Rain  
Wind Chill: 49°   Ceiling: 7000
Heat Index: 49°   Visibility: 10mi
Dew Point: 47°   Wind: 3mph
Humidity: 93%   Direction: 180°S
Pressure: 30.04"   Gusts: NA
Location:  32.81°N, 84.7°W
Report Text: KCSG 260451Z AUTO 18003KT 10SM -RA OVC070 09/08 A3004 RMK AO2 SLP172 P0000 T00940083 401500089
Loading
Personal Weather Stations






























Interactive Weather Map New forecast layout! Learn more

10-Day Weather Forecast

Advertisements
Track Severe Weather on mobile